Hlavní strana
METAR-TAF:

METAR-TAF

Letiště :

Cahokia / St. Louis, Illinois, Spojené státy americké

zeměpisná šířka: 38-34-15N, zeměpisná délka: 090-09-22W, výška: 126 m

Aktuální stav počasí

Zpráva byla vytvořena před 20 minutami, v 23:53 UTC
Bezvětří
Teplota 3°C
Vlhkost vzduchu 70%
Tlak 1024 hPa
Viditelnost: 16.1 km
Jasno

METAR: KCPS 072353Z 00000KT 10SM CLR 03/M02 A3025 RMK AO2 SLP247 T00281017 10083 20017 58008

Čas: 18:13 (00:13 UTC)

Předpověď počasí

Zpráva byla vytvořena před 52 minutami, v 23:21 UTC
Předpověď platná od 08 v 00 UTC do 08 v 24 UTC
Jižní vítr 6 kt
Viditelnost: 10 km
Jasno
Od 08 v 1500 UTC
Jižní vítr 10 kt s nárazy do 20 kt
Viditelnost: 10 km
Polojasno ve výšce 3500 ft
Oblačno až skoro zataženo ve výšce 15000 ft

TAF: KCPS 072321Z 0800/0824 17006KT P6SM SKC FM081500 19010G20KT P6SM SCT035 BKN150

Stav a předpovědi počasí z více než 4 000 letišť (zprávy METAR a TAF).

Červené a žluté tečky na mapě představují dostupné meteorologické stanice.

Když kurzor umístíte na tečku, zobrazí se název stanice.

Pak kliknutím zobrazíte stav a předpověď počasí.

Chcete-li změnit mapu, kliknutím na zelené tlačítko se znaménkem +mapu přiblížíte, kliknutím na zelené tlačítko se znaménkem – mapu oddálíte a kliknutím na zelené šipky přejdete na sousední mapy.


METAR-TAF: